首页
METAR-TAF:

METAR-TAF

机场 :

阿纳帕, 俄罗斯

纬度: 44-54N, 经度: 037-19E, 海拔: 53米

当前天气观测

该预报发布于39分钟前的04:30 UTC
风速12节,风向西转西南
温度 7°C
湿度 81%
气压 1022 hPa
能见度10公里或以上
散云层高于3100英尺, 积雨云.

METAR: URKA 220430Z 25006MPS 9999 SCT031CB 07/04 Q1022 R22/010065 NOSIG RMK QFE761/1015

时间: 09:09 (05:09 UTC)

预报

该预报发布于3小时和14分钟前的01:55 UTC
预报有效从22日的 03点(UTC)到 23日的 03点(UTC)
风速16节,风向南转西南,有时为27节阵风
能见度10公里或以上
散云层高于1100英尺
多云层高于2000英尺, 积雨云.
短暂存在
从 22日的 03点(UTC)到 23日的 03点(UTC)
风速23节,风向西转西南,有时为33节阵风
能見度: 3100
多云层高于1100英尺
多云层高于2000英尺, 积雨云.
小阵雨, 雪, 轻雾

TAF: URKA 220155Z 2203/2303 21008G14MPS 9999 SCT011 BKN020CB TEMPO 2203/2303 24012G17MPS 3100 -SHRASN BR BKN011 BKN020CB

超过4000个机场的气象观测和天气预报(METAR&TAF报告)。

可查询的气象台以黄色和红色小点在地图上表示。

将鼠标移到小点上方,可查看气象台名称。

然后点击查看天气观测和预报。

如需切换地图:点击带黑十字的绿色按钮放大地图;点击带横线的绿色按钮缩小地图;或者点击绿色箭头查看邻近地区的地图。


METAR-TAF: